Ana Sayfa
METAR-TAF:

METAR-TAF

Havaalanları :

Shelby County Airport

Alabaster, Alabama, Amerika Birleşik Devletleri

Enlem: 33-10-42N, Boylam: 086-46-54W, yükseklik: 178 m

Güncel hava durumu gözlemi

Rapor saat 17:53 UTC de 21 dakika önce yapıldı.
Sıcaklık 37°C
Nem 27%
Basınç 1015 hPa
Görüş mesafesi: 16.1 km
Açık gökyüzü

METAR: KEET 251753Z AUTO 10SM CLR 37/15 A2997 RMK AO2 SLP138 T03720150 10372 20233 58008

Saat: 13:14 (18:14 UTC)

Tahmin

Rapor saat 17:20 UTC de 54 dakika önce yapıldı.
Ayın 25'si saat 18 UTC'den ayın 26'si saat 18 UTC'ye kadar geçerli Tahmin
Rüzgar batı/kuzeybatıdan 4 kt
Görüş mesafesi: 10 km
Açık gökyüzü
Ayın 26'si saat 0100 UTC'den
Rüzgar kuzeydan kt
Görüş mesafesi: 10 km
25000 ft yükseklikte parçalı bulutlu

TAF: KEET 251720Z 2518/2618 30004KT P6SM SKC FM260100 00000KT P6SM SCT250

4.000'den fazla havaalanı için hava durumu gözlemleri ve tahminleri (METAR ve TAF raporları).

Kullanılabilir istasyonlar harita üzerinde sarı ve kırmızı noktalarla gösterilir.

İstasyonun adını görmek için fareyi noktanın üzerinde gezdirin.

Sonrasında hava gözlem ve tahminlerini görmek için tıklayın.

Haritayı değiştirmek için: yaklaştırmak için siyah artı işaretli yeşil düğmeye ve uzaklaştırmak için de eksi işaretli düğmeye hızla tıklayın; bitişik haritalar için yeşil okları kullanın.


METAR-TAF: